Flight Track Log - Related Links

Times and Time Zones

All times are in EST time to prevent confusion due to time zone crossing. See the N2229F flight status page for this flight to view local times or setup timezone preferences in your user account.

Time Position Orientation Groundspeed Altitude Reporting Facility
EST Latitude Longitude Course Direction KTS MPH feet Rate Location/Type
Tue 09:03:46 AM 40.8833 -74.3500 56° Northeast 144 166 2,000  Level New York TRACON
Tue 09:05:46 AM 40.8667 -74.3000 45° Northeast 171 197 3,900 667 Climbing New York TRACON
Tue 09:09:46 AM 41.0167 -74.1667 61° Northeast 171 197 6,000 467 Climbing New York TRACON
Tue 09:11:46 AM 41.1167 -74.1333 14° North 171 197 6,700 687 Climbing New York TRACON
Tue 09:14:08 AM 41.1831 -74.0303 66° East 174 200 9,000 739 Climbing Boston Center
Tue 09:15:09 AM 41.2003 -73.9611 72° East 187 215 9,200  Climbing Boston Center
Tue 09:15:46 AM 41.2167 -73.9167 64° Northeast 206 237 9,000 -62 Descending New York TRACON
Tue 09:16:46 AM 41.2333 -73.8333 75° East 225 259 9,100  Climbing New York TRACON
Tue 09:17:46 AM 41.2500 -73.7500 75° East 222 255 9,000 -29 Descending New York TRACON
Tue 09:20:15 AM 41.2869 -73.5669 75° East 219 252 9,000 29 Level Boston Center
Tue 09:21:16 AM 41.3269 -73.5125 46° Northeast 204 235 9,100 66 Climbing Boston Center
Tue 09:21:46 AM 41.3500 -73.4833 44° Northeast 203 234 9,100  Level New York TRACON
Tue 09:22:46 AM 41.3833 -73.4333 48° Northeast 204 235 9,100  Level New York TRACON
Tue 09:23:18 AM 41.4086 -73.4097 35° Northeast 200 230 9,100 -65 Level Boston Center
Tue 09:24:19 AM 41.4536 -73.3517 44° Northeast 208 239 9,000 -49 Descending Boston Center
Tue 09:25:20 AM 41.4947 -73.2978 44° Northeast 205 236 9,000 49 Level Boston Center
Tue 09:26:21 AM 41.5331 -73.2431 47° Northeast 206 237 9,100 53 Climbing Boston Center
Tue 09:27:14 AM 41.5683 -73.1972 44° Northeast 197 227 9,100  Level Boston Center
Tue 09:27:22 AM 41.5722 -73.1931 39° Northeast 196 226 9,100  Level Boston Center
Tue 09:28:23 AM 41.6119 -73.1383 46° Northeast 205 236 9,100  Level Boston Center
Tue 09:29:22 AM 41.6553 -73.1111 25° Northeast 173 199 9,100  Level Boston Center
Tue 09:29:24 AM 41.6575 -73.1125 335° Northwest 181 208 9,100  Level Boston Center
Tue 09:30:16 AM 41.6983 -73.1122 360° North 168 193 9,100  Level Boston Center
Tue 09:30:25 AM 41.7078 -73.1125 359° North 169 194 9,100  Level Boston Center
Tue 09:31:17 AM 41.7472 -73.1158 356° North 170 196 9,100  Level Boston Center
Tue 09:31:26 AM 41.7550 -73.1175 351° North 169 194 9,100  Level Boston Center
Tue 09:32:24 AM 41.7997 -73.1233 354° North 169 194 9,100  Level Boston Center
Tue 09:32:27 AM 41.8017 -73.1231 North 169 194 9,100  Level Boston Center
Tue 09:33:24 AM 41.8483 -73.1294 354° North 171 197 9,100  Level Boston Center
Tue 09:33:28 AM 41.8481 -73.1286 114° Southeast 169 194 9,100  Level Boston Center
Tue 09:34:29 AM 41.9003 -73.1353 355° North 174 200 9,100  Level Boston Center
Tue 09:34:31 AM 41.8986 -73.1364 206° Southwest 172 198 9,100  Level Boston Center
Tue 09:35:32 AM 41.9450 -73.1419 355° North 165 190 9,100  Level Boston Center
Tue 09:36:31 AM 41.9917 -73.1464 356° North 164 189 9,100  Level Boston Center
Tue 09:36:32 AM 41.9914 -73.1472 246° West 165 190 9,100  Level Boston Center
Tue 09:37:32 AM 42.0386 -73.1514 356° North 168 193 9,100  Level Boston Center
Tue 09:37:33 AM 42.0400 -73.1533 314° West 172 198 9,100  Level Boston Center
Tue 09:38:40 AM 42.0950 -73.1592 356° North 173 199 9,100  Level Boston Center
Tue 09:39:23 AM 42.1294 -73.1628 356° North 171 197 9,100  Level Boston Center
Tue 09:39:34 AM 42.1381 -73.1614 North 173 199 9,100  Level Boston Center
Tue 09:40:24 AM 42.1756 -73.1692 351° North 168 193 9,100  Level Boston Center
Tue 09:40:35 AM 42.1847 -73.1678 North 170 196 9,100 -98 Level Boston Center
Tue 09:41:25 AM 42.2219 -73.1725 355° North 166 191 9,000  Descending Boston Center
Tue 09:41:36 AM 42.2311 -73.1717 North 167 192 9,100 100 Climbing Boston Center
Tue 09:42:25 AM 42.2706 -73.1769 354° North 168 193 9,100  Level Boston Center
Tue 09:42:37 AM 42.2775 -73.1764 North 167 192 9,100  Level Boston Center
Tue 09:43:26 AM 42.3144 -73.1825 353° North 166 191 9,100  Level Boston Center
Tue 09:43:38 AM 42.3239 -73.1819 North 168 193 9,100  Level Boston Center
Tue 09:44:26 AM 42.3606 -73.1889 352° North 163 188 9,100  Level Boston Center
Tue 09:44:39 AM 42.3733 -73.1894 358° North 167 192 9,100  Level Boston Center
Tue 09:45:27 AM 42.4081 -73.1986 349° North 163 188 9,100  Level Boston Center
Tue 09:45:40 AM 42.4181 -73.2008 351° North 165 190 9,100  Level Boston Center
Tue 09:46:28 AM 42.4511 -73.2097 349° North 157 181 9,100  Level Boston Center
Tue 09:46:41 AM 42.4628 -73.2131 348° North 163 188 9,100 -100 Level Boston Center
Tue 09:47:28 AM 42.5003 -73.2228 349° North 164 189 9,000  Descending Boston Center
Tue 09:47:42 AM 42.5089 -73.2236 356° North 167 192 9,100 98 Climbing Boston Center
Tue 09:48:29 AM 42.5417 -73.2306 351° North 157 181 9,100  Level Boston Center
Tue 09:48:43 AM 42.5525 -73.2350 343° North 159 183 9,100 -492 Level Boston Center
Tue 09:49:30 AM 42.5867 -73.2425 351° North 165 190 8,600 -590 Descending Boston Center
Tue 09:49:44 AM 42.6031 -73.2472 348° North 171 197 8,500 -480 Descending Boston Center
Tue 09:50:45 AM 42.6539 -73.2603 349° North 183 211 8,000 -492 Descending Boston Center
Tue 09:51:46 AM 42.7044 -73.2725 350° North 184 212 7,500 -505 Descending Boston Center
Tue 09:52:32 AM 42.7350 -73.2767 354° North 144 166 7,100 -492 Descending Boston Center
Tue 09:52:47 AM 42.7464 -73.2797 349° North 157 181 7,000 -474 Descending Boston Center
Tue 09:53:48 AM 42.7914 -73.2925 348° North 162 186 6,500 -566 Descending Boston Center
Tue 09:54:33 AM 42.8272 -73.3011 350° North 169 194 6,000 -590 Descending Boston Center
Tue 09:54:49 AM 42.8417 -73.3072 343° North 171 197 5,900 -492 Descending Boston Center
Tue 09:55:34 AM 42.8742 -73.3136 352° North 174 200 5,500 -492 Descending Boston Center
Tue 09:55:50 AM 42.8894 -73.3192 345° North 174 200 5,400 -500 Descending Boston Center
Tue 09:56:34 AM 42.9214 -73.3264 351° North 168 193 5,000 -492 Descending Boston Center
Tue 09:56:51 AM 42.9361 -73.3297 351° North 170 196 4,900 -590 Descending Boston Center
Tue 09:57:35 AM 42.9669 -73.3356 352° North 167 192 4,400 -590 Descending Boston Center
Tue 09:57:52 AM 42.9817 -73.3406 346° North 167 192 4,300 -492 Descending Boston Center
Tue 09:58:36 AM 43.0100 -73.3586 335° Northwest 134 154 3,900 -492 Descending Boston Center
Tue 09:58:53 AM 43.0164 -73.3642 328° Northwest 139 160 3,800 -400 Descending Boston Center
Tue 09:59:36 AM 43.0394 -73.3858 326° Northwest 128 147 3,500 -295 Descending Boston Center
Tue 09:59:54 AM 43.0469 -73.3931 325° Northwest 134 154 3,500  Level Boston Center
Tue 10:00:37 AM 43.0536 -73.4258 286° West 122 140 3,500  Level Boston Center
Tue 10:00:55 AM 43.0550 -73.4389 278° West 123 142 3,500  Level Boston Center
Tue 10:01:38 AM 43.0714 -73.4581 319° Northwest 142 163 3,500  Level Boston Center
Tue 10:01:55 AM 43.0814 -73.4464 40° Northeast 139 160 3,500  Level Boston Center
Tue 10:02:38 AM 43.0714 -73.4111 111° Southeast 152 175 3,500  Level Boston Center
Tue 10:02:56 AM 43.0614 -73.4003 142° Southeast 156 180 3,500  Level Boston Center
Tue 10:03:39 AM 43.0358 -73.3819 152° Southeast 164 189 3,500  Level Boston Center
Tue 10:03:57 AM 43.0236 -73.3736 154° Southeast 152 175 3,500  Level Boston Center
Tue 10:04:40 AM 42.9953 -73.3567 156° South 151 174 3,500  Level Boston Center
Tue 10:04:58 AM 42.9861 -73.3481 146° Southeast 151 174 3,500  Level Boston Center
Tue 10:06:00 AM 42.9544 -73.3278 155° Southeast 151 174 3,500  Level Boston Center

Login

Don't have an account? Register now (free) for customized features, flight alerts, and more!